createdAt,value
2018-08-22T00:01:05.031Z,14.30
2018-08-22T00:03:33.722Z,13.10
2018-08-22T00:06:02.571Z,13.37
2018-08-22T00:08:36.226Z,13.27
2018-08-22T00:11:04.887Z,13.20
2018-08-22T00:13:33.587Z,13.20
2018-08-22T00:16:02.290Z,13.73
2018-08-22T00:18:31.009Z,14.90
2018-08-22T00:20:59.699Z,13.07
2018-08-22T00:23:28.446Z,13.93
2018-08-22T00:25:57.167Z,18.23
2018-08-22T00:28:25.899Z,14.07
2018-08-22T00:30:54.678Z,14.07
2018-08-22T00:33:23.432Z,13.70
2018-08-22T00:35:52.236Z,14.00
2018-08-22T00:38:21.032Z,13.23
2018-08-22T00:40:49.814Z,14.00
2018-08-22T00:43:18.736Z,13.50
2018-08-22T00:45:47.534Z,14.77
2018-08-22T00:48:16.299Z,13.67
2018-08-22T00:50:45.062Z,14.03
2018-08-22T00:53:13.843Z,13.13
2018-08-22T00:55:42.620Z,13.80
2018-08-22T00:58:11.493Z,14.13
2018-08-22T01:00:40.366Z,15.20
2018-08-22T01:03:09.195Z,13.57
2018-08-22T01:05:38.000Z,13.87
2018-08-22T01:08:06.821Z,14.10
2018-08-22T01:10:35.748Z,14.73
2018-08-22T01:13:04.525Z,14.17
2018-08-22T01:15:33.360Z,14.43
2018-08-22T01:18:02.235Z,14.47
2018-08-22T01:20:31.078Z,13.77
2018-08-22T01:22:59.859Z,13.83
2018-08-22T01:25:28.749Z,13.97
2018-08-22T01:27:57.510Z,14.17
2018-08-22T01:30:26.425Z,13.30
2018-08-22T01:32:55.150Z,14.07
2018-08-22T01:35:24.714Z,14.47
2018-08-22T01:37:53.551Z,13.40
2018-08-22T01:40:22.415Z,13.60
2018-08-22T01:42:51.175Z,12.93
2018-08-22T01:45:19.972Z,13.13
2018-08-22T01:47:48.799Z,13.27
2018-08-22T01:50:17.663Z,12.43
2018-08-22T01:52:46.443Z,13.07
2018-08-22T01:55:15.259Z,13.50
2018-08-22T01:57:44.034Z,12.47
2018-08-22T02:00:12.929Z,15.97
2018-08-22T02:02:41.784Z,12.73
2018-08-22T02:05:10.578Z,14.17
2018-08-22T02:07:39.355Z,16.70
2018-08-22T02:10:08.130Z,13.47
2018-08-22T02:12:37.041Z,14.80
2018-08-22T02:15:06.489Z,14.53
2018-08-22T02:17:35.213Z,13.67
2018-08-22T02:20:03.914Z,15.40
2018-08-22T02:22:32.598Z,15.00
2018-08-22T02:25:01.344Z,13.40
2018-08-22T02:27:30.165Z,13.80
2018-08-22T02:30:07.740Z,16.50
2018-08-22T02:32:36.850Z,17.17
2018-08-22T02:35:05.824Z,14.43
2018-08-22T02:37:34.566Z,15.37
2018-08-22T02:40:03.387Z,14.90
2018-08-22T02:42:32.197Z,14.77
2018-08-22T02:45:01.056Z,14.10
2018-08-22T02:47:29.874Z,14.13
2018-08-22T02:49:58.625Z,16.60
2018-08-22T02:52:27.537Z,14.67
2018-08-22T02:54:56.262Z,14.53
2018-08-22T02:57:24.996Z,14.53
2018-08-22T02:59:53.759Z,13.27
2018-08-22T03:02:22.466Z,16.20
2018-08-22T03:04:51.241Z,15.93
2018-08-22T03:07:20.049Z,14.83
2018-08-22T03:09:48.815Z,14.37
2018-08-22T03:12:17.521Z,15.07
2018-08-22T03:14:46.248Z,15.20
2018-08-22T03:17:14.999Z,15.83
2018-08-22T03:19:43.791Z,15.73
2018-08-22T03:22:12.630Z,15.60
2018-08-22T03:24:41.413Z,15.33
2018-08-22T03:27:10.168Z,18.10
2018-08-22T03:29:39.009Z,15.20
2018-08-22T03:32:07.651Z,14.43
2018-08-22T03:34:36.391Z,14.47
2018-08-22T03:37:05.222Z,14.03
2018-08-22T03:39:33.971Z,13.07
2018-08-22T03:42:02.635Z,17.73
2018-08-22T03:44:31.303Z,15.43
2018-08-22T03:47:00.021Z,14.67
2018-08-22T03:49:28.684Z,14.83
2018-08-22T03:51:57.402Z,14.30
2018-08-22T03:54:26.140Z,12.57
2018-08-22T03:56:54.834Z,13.97
2018-08-22T03:59:23.556Z,14.87
2018-08-22T04:01:52.263Z,12.60
2018-08-22T04:04:22.002Z,11.37
2018-08-22T04:06:50.726Z,11.90
2018-08-22T04:09:19.415Z,13.70
2018-08-22T04:11:48.060Z,14.77
2018-08-22T04:14:16.771Z,12.80
2018-08-22T04:16:45.474Z,14.00
2018-08-22T04:19:14.145Z,11.57
2018-08-22T04:21:42.815Z,14.17
2018-08-22T04:24:11.463Z,13.03
2018-08-22T04:26:40.154Z,16.33
2018-08-22T04:29:08.830Z,16.23
2018-08-22T04:31:37.470Z,11.17
2018-08-22T04:34:06.178Z,13.13
2018-08-22T04:36:34.850Z,12.87
2018-08-22T04:39:04.243Z,15.93
2018-08-22T04:41:32.873Z,12.13
2018-08-22T04:44:01.515Z,15.50
2018-08-22T04:46:30.160Z,16.37
2018-08-22T04:48:58.825Z,11.10
2018-08-22T04:51:27.470Z,11.47
2018-08-22T04:53:56.130Z,14.37
2018-08-22T04:56:24.770Z,14.00
2018-08-22T04:58:53.484Z,15.63
2018-08-22T05:01:22.199Z,14.03
2018-08-22T05:03:50.874Z,11.63
2018-08-22T05:06:19.567Z,14.37
2018-08-22T05:08:48.244Z,15.13
2018-08-22T05:11:16.955Z,11.73
2018-08-22T05:13:45.660Z,12.50
2018-08-22T05:16:14.365Z,12.73
2018-08-22T05:18:43.070Z,13.37
2018-08-22T05:21:11.775Z,13.87
2018-08-22T05:23:40.439Z,17.07
2018-08-22T05:26:09.167Z,15.87
2018-08-22T05:28:37.872Z,16.77
2018-08-22T05:31:06.693Z,17.67
2018-08-22T05:33:35.408Z,18.35
2018-08-22T05:36:10.605Z,17.77
2018-08-22T05:38:39.339Z,18.98
2018-08-22T05:41:08.148Z,17.77
2018-08-22T05:43:36.875Z,20.75
2018-08-22T05:46:05.553Z,17.10
2018-08-22T05:48:34.265Z,17.73
2018-08-22T05:51:02.969Z,23.75
2018-08-22T05:53:31.717Z,16.97
2018-08-22T05:56:00.386Z,16.45
2018-08-22T05:58:29.099Z,17.57
2018-08-22T06:00:57.816Z,18.25
2018-08-22T06:03:26.576Z,22.15
2018-08-22T06:05:55.234Z,17.12
2018-08-22T06:08:23.918Z,18.30
2018-08-22T06:10:52.645Z,15.15
2018-08-22T06:13:21.402Z,16.60
2018-08-22T06:15:50.201Z,15.65
2018-08-22T06:18:18.812Z,20.35
2018-08-22T06:20:47.555Z,15.93
2018-08-22T06:23:16.284Z,14.85
2018-08-22T06:25:46.023Z,17.05
2018-08-22T06:28:14.749Z,15.63
2018-08-22T06:30:43.695Z,15.53
2018-08-22T06:33:12.404Z,15.90
2018-08-22T06:35:41.112Z,16.60
2018-08-22T06:38:09.833Z,15.63
2018-08-22T06:40:38.526Z,14.60
2018-08-22T06:43:07.233Z,14.75
2018-08-22T06:45:35.929Z,15.00
2018-08-22T06:48:04.708Z,17.87
2018-08-22T06:50:33.378Z,18.20
2018-08-22T06:53:02.051Z,18.50
2018-08-22T06:55:30.732Z,17.55
2018-08-22T06:57:59.407Z,15.38
2018-08-22T07:00:28.150Z,15.60
2018-08-22T07:02:56.836Z,14.45
2018-08-22T07:05:25.648Z,13.98
2018-08-22T07:07:55.097Z,15.98
2018-08-22T07:10:23.800Z,15.00
2018-08-22T07:12:52.563Z,15.00
2018-08-22T07:15:21.227Z,14.50
2018-08-22T07:17:49.919Z,14.95
2018-08-22T07:20:18.608Z,14.55
2018-08-22T07:49:30.932Z,13.75
2018-08-22T07:51:59.665Z,14.73
2018-08-22T07:54:31.603Z,17.50
2018-08-22T07:57:00.292Z,15.60
2018-08-22T07:59:29.054Z,15.18
2018-08-22T08:01:57.810Z,15.00
2018-08-22T08:04:26.491Z,15.05
2018-08-22T08:06:55.263Z,15.53
2018-08-22T08:09:24.001Z,14.23
2018-08-22T08:11:53.046Z,16.77
2018-08-22T08:14:21.825Z,14.83
2018-08-22T08:16:50.555Z,13.90
2018-08-22T08:19:19.314Z,14.05
2018-08-22T08:21:48.175Z,14.58
2018-08-22T08:24:16.995Z,13.25
2018-08-22T08:26:45.792Z,12.70
2018-08-22T08:29:14.645Z,13.32
2018-08-22T08:31:43.397Z,14.03
2018-08-22T08:34:12.211Z,13.15
2018-08-22T08:36:41.061Z,12.37
2018-08-22T08:39:10.925Z,14.35
2018-08-22T08:41:39.798Z,12.55
2018-08-22T08:44:08.604Z,12.15
2018-08-22T08:46:37.508Z,11.85
2018-08-22T08:49:06.367Z,11.90
2018-08-22T08:51:36.399Z,11.18
2018-08-22T08:54:05.234Z,11.35
2018-08-22T08:56:34.000Z,11.48
2018-08-22T08:59:02.859Z,11.90
2018-08-22T09:01:31.650Z,12.13
2018-08-22T09:04:00.526Z,12.05
2018-08-22T09:06:29.166Z,10.32
2018-08-22T09:08:58.066Z,10.82
2018-08-22T09:11:26.775Z,11.57
2018-08-22T09:13:59.950Z,9.75
2018-08-22T09:16:28.720Z,10.68
2018-08-22T09:18:57.496Z,12.60
2018-08-22T09:21:26.348Z,9.80
2018-08-22T09:23:55.194Z,10.95
2018-08-22T09:26:23.961Z,12.05
2018-08-22T09:28:52.805Z,9.88
2018-08-22T09:31:21.545Z,10.88
2018-08-22T09:33:50.396Z,10.95
2018-08-22T09:36:19.131Z,10.53
2018-08-22T09:38:48.555Z,10.50
2018-08-22T09:41:17.549Z,10.55
2018-08-22T09:43:46.666Z,9.85
2018-08-22T09:46:30.050Z,10.05
2018-08-22T09:48:58.910Z,10.10
2018-08-22T09:51:27.778Z,10.43
2018-08-22T09:53:56.494Z,9.83
2018-08-22T09:56:25.493Z,9.60
2018-08-22T09:58:54.622Z,10.55
2018-08-22T10:01:42.959Z,12.15
2018-08-22T10:04:11.872Z,9.43
2018-08-22T10:06:42.129Z,9.90
2018-08-22T10:09:12.290Z,10.50
2018-08-22T10:11:41.086Z,10.00
2018-08-22T10:14:09.923Z,11.43
2018-08-22T10:16:38.845Z,10.13
2018-08-22T10:19:08.023Z,9.15
2018-08-22T10:21:37.268Z,9.93
2018-08-22T10:24:06.264Z,11.38
2018-08-22T10:26:35.155Z,9.95
2018-08-22T10:29:03.902Z,11.93
2018-08-22T10:31:32.721Z,10.05
2018-08-22T10:34:01.493Z,9.63
2018-08-22T10:36:30.258Z,9.85
2018-08-22T10:38:59.275Z,10.43
2018-08-22T10:41:28.082Z,9.28
2018-08-22T10:43:56.893Z,10.05
2018-08-22T10:46:25.523Z,13.72
2018-08-22T10:48:54.250Z,10.25
2018-08-22T10:51:22.881Z,10.85
2018-08-22T10:53:51.604Z,11.53
2018-08-22T10:56:20.402Z,11.05
2018-08-22T10:58:49.163Z,10.43
2018-08-22T11:01:17.942Z,11.83
2018-08-22T11:03:46.595Z,11.53
2018-08-22T11:06:15.358Z,9.60
2018-08-22T11:08:44.068Z,10.70
2018-08-22T11:11:12.739Z,9.65
2018-08-22T11:13:41.504Z,10.08
2018-08-22T11:16:10.283Z,9.83
2018-08-22T11:18:39.015Z,9.93
2018-08-22T11:21:18.657Z,9.58
2018-08-22T11:23:58.387Z,10.58
2018-08-22T11:26:38.003Z,10.13
2018-08-22T11:29:17.652Z,10.75
2018-08-22T11:31:57.276Z,10.15
2018-08-22T11:34:36.860Z,10.50
2018-08-22T11:37:07.904Z,9.45
2018-08-22T11:39:36.592Z,9.98
2018-08-22T11:42:05.637Z,10.10
2018-08-22T11:44:34.281Z,9.58
2018-08-22T11:47:03.084Z,9.05
2018-08-22T11:49:32.296Z,9.88
2018-08-22T11:52:01.038Z,10.68
2018-08-22T11:54:30.368Z,10.58
2018-08-22T11:56:59.045Z,9.40
2018-08-22T11:59:27.711Z,9.88
2018-08-22T12:01:56.533Z,9.80
2018-08-22T12:04:25.238Z,10.63
2018-08-22T12:06:54.031Z,9.98
2018-08-22T12:09:22.777Z,11.83
2018-08-22T12:11:51.507Z,9.90
2018-08-22T12:14:20.272Z,11.55
2018-08-22T12:16:49.113Z,10.13
2018-08-22T12:19:17.853Z,9.75
2018-08-22T12:21:46.576Z,10.03
2018-08-22T12:24:15.337Z,12.28
2018-08-22T12:26:49.285Z,10.70
2018-08-22T12:29:21.241Z,13.38
2018-08-22T12:31:49.939Z,10.50
2018-08-22T12:34:18.620Z,9.70
2018-08-22T12:36:47.386Z,12.10
2018-08-22T12:39:16.217Z,11.33
2018-08-22T12:41:44.960Z,11.33
2018-08-22T12:44:34.290Z,11.57
2018-08-22T12:47:17.157Z,15.75
2018-08-22T12:49:45.882Z,10.75
2018-08-22T12:52:14.584Z,10.48
2018-08-22T12:54:43.277Z,12.30
2018-08-22T12:57:13.555Z,12.07
2018-08-22T12:59:42.557Z,11.30
2018-08-22T13:02:11.335Z,10.38
2018-08-22T13:04:40.074Z,10.40
2018-08-22T13:07:08.834Z,10.50
2018-08-22T13:10:00.154Z,9.95
2018-08-22T13:12:37.651Z,10.50
2018-08-22T13:15:07.950Z,9.65
2018-08-22T13:17:36.590Z,10.40
2018-08-22T13:20:05.726Z,11.88
2018-08-22T13:22:34.413Z,10.13
2018-08-22T13:25:03.434Z,11.12
2018-08-22T13:27:34.301Z,12.18
2018-08-22T13:30:10.544Z,10.75
2018-08-22T13:32:43.292Z,10.13
2018-08-22T13:35:12.239Z,11.33
2018-08-22T13:37:40.971Z,10.55
2018-08-22T13:40:15.837Z,9.73
2018-08-22T13:42:44.621Z,10.35
2018-08-22T13:45:13.367Z,12.58
2018-08-22T13:47:42.164Z,9.78
2018-08-22T13:50:10.866Z,9.88
2018-08-22T13:52:39.669Z,8.95
2018-08-22T13:55:08.409Z,10.23
2018-08-22T13:57:37.363Z,9.90
2018-08-22T14:00:12.070Z,10.20
2018-08-22T14:02:49.415Z,10.48
2018-08-22T14:05:18.280Z,10.30
2018-08-22T14:07:47.033Z,8.55
2018-08-22T14:10:15.750Z,10.20
2018-08-22T14:12:44.497Z,9.80
2018-08-22T14:15:13.218Z,9.33
2018-08-22T14:17:52.224Z,9.70
2018-08-22T14:20:20.991Z,10.95
2018-08-22T14:22:49.747Z,9.78
2018-08-22T14:25:21.912Z,9.40
2018-08-22T14:27:54.820Z,14.33
2018-08-22T14:30:24.854Z,11.90
2018-08-22T14:32:53.572Z,9.70
2018-08-22T14:35:22.386Z,11.35
2018-08-22T14:37:54.341Z,10.35
2018-08-22T14:40:23.062Z,9.00
2018-08-22T14:42:51.725Z,11.08
2018-08-22T14:45:20.530Z,9.18
2018-08-22T14:47:49.182Z,10.15
2018-08-22T14:50:17.854Z,11.80
2018-08-22T14:52:46.507Z,15.00
2018-08-22T14:55:15.681Z,12.13
2018-08-22T14:57:44.500Z,10.40
2018-08-22T15:00:13.203Z,9.48
2018-08-22T15:02:43.314Z,10.15
2018-08-22T15:05:12.342Z,9.58
2018-08-22T15:07:41.052Z,11.08
2018-08-22T15:10:10.207Z,11.85
2018-08-22T15:12:39.019Z,9.73
2018-08-22T15:15:07.744Z,12.47
2018-08-22T15:17:36.482Z,9.38
2018-08-22T15:20:05.420Z,9.48
2018-08-22T15:22:34.058Z,9.68
2018-08-22T15:25:02.864Z,9.20
2018-08-22T15:27:31.556Z,12.60
2018-08-22T15:30:00.375Z,11.80
2018-08-22T15:32:29.117Z,12.28
2018-08-22T15:34:59.177Z,9.48
2018-08-22T15:37:27.947Z,9.85
2018-08-22T15:39:56.658Z,9.63
2018-08-22T15:42:28.826Z,12.80
2018-08-22T15:45:04.777Z,10.68
2018-08-22T15:47:33.680Z,10.18
2018-08-22T15:50:02.480Z,9.95
2018-08-22T15:52:31.245Z,11.97
2018-08-22T15:55:22.019Z,14.35
2018-08-22T15:57:59.400Z,9.78
2018-08-22T16:00:47.720Z,11.03
2018-08-22T16:03:16.580Z,10.00
2018-08-22T16:05:46.837Z,9.88
2018-08-22T16:08:17.950Z,12.68
2018-08-22T16:10:46.766Z,12.37
2018-08-22T16:13:20.618Z,12.20
2018-08-22T16:15:50.810Z,10.45
2018-08-22T16:18:19.668Z,11.18
2018-08-22T16:20:56.344Z,11.87
2018-08-22T16:23:31.024Z,9.70
2018-08-22T16:26:00.951Z,10.28
2018-08-22T16:29:33.728Z,10.08
2018-08-22T16:32:02.417Z,12.57
2018-08-22T16:34:31.156Z,9.07
2018-08-22T16:37:00.269Z,15.37
2018-08-22T16:39:41.592Z,9.80
2018-08-22T16:42:10.942Z,9.33
2018-08-22T16:44:39.999Z,11.13
2018-08-22T16:47:08.661Z,9.40
2018-08-22T16:49:37.429Z,12.13
2018-08-22T16:52:06.179Z,12.20
2018-08-22T16:54:34.928Z,11.30
2018-08-22T16:57:03.693Z,10.37
2018-08-22T16:59:32.401Z,10.47
2018-08-22T17:02:01.284Z,14.40
2018-08-22T17:04:29.907Z,11.17
2018-08-22T17:07:03.182Z,11.50
2018-08-22T17:09:31.910Z,11.33
2018-08-22T17:12:00.635Z,10.10
2018-08-22T17:14:29.523Z,10.07
2018-08-22T17:16:58.315Z,10.07
2018-08-22T17:19:27.212Z,13.83
2018-08-22T17:21:55.899Z,10.83
2018-08-22T17:24:24.647Z,15.30
2018-08-22T17:26:53.453Z,10.50
2018-08-22T17:29:22.159Z,13.00
2018-08-22T17:31:55.980Z,14.30
2018-08-22T17:34:24.707Z,11.73
2018-08-22T17:37:04.069Z,9.97
2018-08-22T17:39:33.362Z,9.60
2018-08-22T17:42:02.428Z,11.27
2018-08-22T17:44:31.122Z,8.97
2018-08-22T17:46:59.806Z,9.93
2018-08-22T17:49:28.496Z,10.73
2018-08-22T17:52:04.255Z,11.27
2018-08-22T17:54:33.000Z,14.27
2018-08-22T17:57:17.690Z,17.47
2018-08-22T17:59:46.564Z,10.87
2018-08-22T18:02:15.306Z,17.33
2018-08-22T18:04:57.186Z,11.93
2018-08-22T18:07:25.990Z,9.77
2018-08-22T18:09:54.741Z,12.93
2018-08-22T18:12:25.209Z,10.43
2018-08-22T18:14:56.223Z,9.83
2018-08-22T18:17:24.935Z,11.30
2018-08-22T18:19:53.693Z,10.97
2018-08-22T18:22:22.442Z,9.73
2018-08-22T18:24:56.587Z,14.10
2018-08-22T18:27:25.633Z,10.77
2018-08-22T18:29:54.341Z,11.47
2018-08-22T18:32:23.046Z,13.83
2018-08-22T18:35:12.197Z,14.07
2018-08-22T18:37:41.579Z,16.47
2018-08-22T18:40:20.853Z,11.20
2018-08-22T18:42:51.235Z,12.47
2018-08-22T18:45:20.674Z,12.97
2018-08-22T18:47:49.330Z,14.53
2018-08-22T18:50:18.287Z,11.40
2018-08-22T18:52:51.243Z,10.43
2018-08-22T18:55:28.359Z,8.97
2018-08-22T18:57:58.385Z,11.83
2018-08-22T19:00:27.154Z,11.73
2018-08-22T19:02:57.143Z,13.93
2018-08-22T19:05:32.505Z,11.37
2018-08-22T19:08:15.832Z,11.63
2018-08-22T19:10:45.895Z,11.57
2018-08-22T19:13:17.405Z,11.73
2018-08-22T19:15:48.001Z,19.17
2018-08-22T19:18:16.762Z,15.13
2018-08-22T19:20:45.550Z,11.57
2018-08-22T19:23:14.315Z,12.97
2018-08-22T19:25:46.068Z,10.40
2018-08-22T19:28:14.775Z,12.93
2018-08-22T19:30:43.517Z,13.37
2018-08-22T19:33:14.677Z,11.60
2018-08-22T19:35:43.816Z,11.67
2018-08-22T19:38:14.747Z,10.57
2018-08-22T19:40:43.459Z,11.10
2018-08-22T19:43:12.203Z,13.00
2018-08-22T19:45:40.931Z,11.50
2018-08-22T19:48:09.719Z,13.47
2018-08-22T19:50:38.398Z,11.40
2018-08-22T19:53:07.233Z,14.37
2018-08-22T19:55:37.926Z,14.93
2018-08-22T19:58:07.137Z,11.77
2018-08-22T20:00:35.860Z,12.53
2018-08-22T20:03:04.603Z,11.20
2018-08-22T20:05:55.155Z,14.60
2018-08-22T20:08:29.041Z,16.07
2018-08-22T20:10:58.902Z,12.37
2018-08-22T20:13:37.878Z,16.03
2018-08-22T20:16:06.836Z,11.83
2018-08-22T20:18:35.515Z,14.67
2018-08-22T20:21:04.308Z,12.07
2018-08-22T20:23:33.028Z,13.63
2018-08-22T20:26:01.934Z,12.30
2018-08-22T20:28:30.690Z,14.70
2018-08-22T20:31:03.745Z,11.43
2018-08-22T20:33:32.588Z,11.13
2018-08-22T20:36:01.245Z,10.80
2018-08-22T20:38:29.963Z,11.73
2018-08-22T20:41:03.023Z,10.70
2018-08-22T20:43:31.738Z,11.43
2018-08-22T20:46:00.415Z,10.73
2018-08-22T20:48:29.222Z,12.40
2018-08-22T20:50:58.026Z,12.77
2018-08-22T20:53:26.708Z,10.77
2018-08-22T20:55:56.001Z,11.40
2018-08-22T20:58:29.891Z,13.30
2018-08-22T21:00:59.018Z,12.40
2018-08-22T21:03:27.678Z,13.43
2018-08-22T21:05:56.339Z,18.80
2018-08-22T21:08:25.043Z,12.17
2018-08-22T21:10:53.711Z,17.47
2018-08-22T21:13:28.698Z,18.70
2018-08-22T21:15:57.904Z,15.20
2018-08-22T21:18:26.671Z,14.60
2018-08-22T21:20:55.445Z,21.20
2018-08-22T21:23:24.138Z,16.53
2018-08-22T21:25:52.804Z,21.77
2018-08-22T21:28:27.565Z,18.67
2018-08-22T21:30:59.061Z,16.60
2018-08-22T21:33:28.535Z,15.40
2018-08-22T21:35:57.227Z,13.90
2018-08-22T21:38:25.954Z,20.70
2018-08-22T21:40:54.671Z,20.33
2018-08-22T21:43:23.732Z,17.83
2018-08-22T21:45:52.670Z,16.93
2018-08-22T21:48:24.208Z,16.83
2018-08-22T21:50:52.912Z,16.07
2018-08-22T21:53:21.830Z,24.77
2018-08-22T21:55:51.872Z,18.57
2018-08-22T21:58:20.539Z,19.83
2018-08-22T22:00:49.285Z,18.90
2018-08-22T22:03:23.085Z,13.33
2018-08-22T22:05:57.153Z,11.13
2018-08-22T22:08:27.756Z,10.97
2018-08-22T22:11:06.455Z,13.53
2018-08-22T22:13:35.101Z,10.83
2018-08-22T22:16:05.247Z,10.10
2018-08-22T22:18:34.853Z,10.43
2018-08-22T22:21:09.726Z,9.00
2018-08-22T22:23:43.808Z,9.77
2018-08-22T22:26:12.893Z,9.30
2018-08-22T22:28:41.905Z,12.83
2018-08-22T22:31:12.685Z,12.83
2018-08-22T22:33:57.989Z,10.07
2018-08-22T22:36:26.672Z,9.97
2018-08-22T22:38:55.389Z,9.83
2018-08-22T22:41:26.770Z,10.73
2018-08-22T22:43:55.462Z,9.73
2018-08-22T22:46:24.095Z,11.37
2018-08-22T22:48:52.834Z,9.83
2018-08-22T22:51:21.496Z,8.27
2018-08-22T22:53:50.267Z,10.97
2018-08-22T22:56:19.011Z,8.23
2018-08-22T22:58:47.665Z,9.63
2018-08-22T23:01:16.521Z,8.53
2018-08-22T23:03:45.299Z,7.60
2018-08-22T23:06:14.060Z,7.43
2018-08-22T23:08:42.953Z,8.60
2018-08-22T23:11:11.639Z,6.50
2018-08-22T23:13:40.280Z,9.93
2018-08-22T23:16:08.967Z,7.63
2018-08-22T23:18:37.710Z,8.37
2018-08-22T23:21:06.533Z,6.43
2018-08-22T23:23:37.945Z,7.03
2018-08-22T23:26:22.264Z,8.60
2018-08-22T23:28:50.914Z,7.23
2018-08-22T23:31:20.625Z,7.37
2018-08-22T23:33:49.442Z,7.13
2018-08-22T23:36:18.132Z,6.33
2018-08-22T23:38:46.771Z,5.97
2018-08-22T23:41:15.422Z,6.50
2018-08-22T23:43:49.262Z,9.17
2018-08-22T23:46:17.954Z,7.03
2018-08-22T23:48:51.266Z,6.70
2018-08-22T23:51:19.922Z,6.23
2018-08-22T23:53:49.029Z,6.83
2018-08-22T23:56:22.759Z,8.13
2018-08-22T23:58:52.128Z,5.70
